createdAt,value
2017-08-28T00:00:35.774Z,65
2017-08-28T00:01:43.864Z,65
2017-08-28T00:02:51.949Z,65
2017-08-28T00:04:00.038Z,65
2017-08-28T00:05:08.126Z,65
2017-08-28T00:06:16.214Z,65
2017-08-28T00:07:24.301Z,65
2017-08-28T00:08:32.393Z,65
2017-08-28T00:09:40.487Z,65
2017-08-28T00:10:48.576Z,65
2017-08-28T00:11:56.676Z,65
2017-08-28T00:13:04.770Z,65
2017-08-28T00:14:12.861Z,65
2017-08-28T00:15:20.945Z,65
2017-08-28T00:16:29.035Z,65
2017-08-28T00:17:37.124Z,65
2017-08-28T00:18:45.212Z,65
2017-08-28T00:19:53.299Z,65
2017-08-28T00:21:01.387Z,65
2017-08-28T00:22:09.475Z,65
2017-08-28T00:23:17.565Z,65
2017-08-28T00:24:25.754Z,65
2017-08-28T00:25:33.744Z,65
2017-08-28T00:26:41.832Z,65
2017-08-28T00:27:49.918Z,65
2017-08-28T00:28:58.007Z,65
2017-08-28T00:30:06.105Z,65
2017-08-28T00:31:14.183Z,65
2017-08-28T00:32:22.269Z,65
2017-08-28T00:33:30.364Z,65
2017-08-28T00:34:38.448Z,66
2017-08-28T00:35:46.537Z,66
2017-08-28T00:36:54.624Z,65
2017-08-28T00:38:02.710Z,65
2017-08-28T00:39:10.799Z,66
2017-08-28T00:40:18.888Z,66
2017-08-28T00:41:26.978Z,66
2017-08-28T00:42:35.063Z,65
2017-08-28T00:43:43.150Z,66
2017-08-28T00:44:51.238Z,66
2017-08-28T00:45:59.328Z,66
2017-08-28T00:47:07.415Z,66
2017-08-28T00:48:15.502Z,65
2017-08-28T00:49:23.591Z,66
2017-08-28T00:50:31.685Z,65
2017-08-28T00:51:39.775Z,66
2017-08-28T00:52:47.877Z,66
2017-08-28T00:53:55.959Z,65
2017-08-28T00:55:04.048Z,65
2017-08-28T00:56:12.147Z,66
2017-08-28T00:57:20.234Z,65
2017-08-28T00:58:28.323Z,66
2017-08-28T00:59:36.421Z,66
2017-08-28T01:00:44.511Z,66
2017-08-28T01:01:52.592Z,65
2017-08-28T01:03:00.680Z,65
2017-08-28T01:04:08.782Z,66
2017-08-28T01:05:16.864Z,66
2017-08-28T01:06:24.957Z,66
2017-08-28T01:07:33.041Z,66
2017-08-28T01:08:41.130Z,66
2017-08-28T01:09:49.217Z,66
2017-08-28T01:10:57.303Z,66
2017-08-28T01:12:05.399Z,66
2017-08-28T01:13:13.488Z,65
2017-08-28T01:14:21.576Z,65
2017-08-28T01:15:29.664Z,65
2017-08-28T01:16:37.754Z,66
2017-08-28T01:17:45.841Z,65
2017-08-28T01:18:53.926Z,65
2017-08-28T01:20:02.017Z,65
2017-08-28T01:21:10.104Z,65
2017-08-28T01:22:18.196Z,66
2017-08-28T01:23:26.281Z,66
2017-08-28T01:24:34.367Z,66
2017-08-28T01:25:42.458Z,66
2017-08-28T01:26:50.545Z,65
2017-08-28T01:27:58.633Z,66
2017-08-28T01:29:06.717Z,66
2017-08-28T01:30:14.807Z,65
2017-08-28T01:31:22.896Z,66
2017-08-28T01:32:30.982Z,66
2017-08-28T01:33:39.070Z,66
2017-08-28T01:34:47.166Z,66
2017-08-28T01:35:55.258Z,66
2017-08-28T01:37:03.340Z,66
2017-08-28T01:38:11.434Z,66
2017-08-28T01:39:19.519Z,66
2017-08-28T01:40:27.614Z,66
2017-08-28T01:41:35.697Z,66
2017-08-28T01:42:43.798Z,66
2017-08-28T01:43:51.887Z,66
2017-08-28T01:44:59.976Z,66
2017-08-28T01:46:08.063Z,66
2017-08-28T01:47:16.153Z,66
2017-08-28T01:48:24.241Z,66
2017-08-28T01:49:32.394Z,66
2017-08-28T01:50:40.416Z,66
2017-08-28T01:51:48.504Z,66
2017-08-28T01:52:56.605Z,66
2017-08-28T01:54:04.680Z,66
2017-08-28T01:55:12.767Z,66
2017-08-28T01:56:20.853Z,66
2017-08-28T01:57:28.942Z,66
2017-08-28T01:58:37.029Z,66
2017-08-28T01:59:45.119Z,66
2017-08-28T02:00:53.218Z,66
2017-08-28T02:02:01.303Z,66
2017-08-28T02:03:09.398Z,66
2017-08-28T02:04:17.489Z,66
2017-08-28T02:05:25.583Z,66
2017-08-28T02:06:33.670Z,66
2017-08-28T02:07:41.759Z,66
2017-08-28T02:08:49.848Z,65
2017-08-28T02:09:57.993Z,66
2017-08-28T02:11:06.027Z,66
2017-08-28T02:12:14.115Z,65
2017-08-28T02:13:22.204Z,65
2017-08-28T02:14:30.291Z,66
2017-08-28T02:15:38.377Z,66
2017-08-28T02:16:46.474Z,65
2017-08-28T02:17:54.563Z,65
2017-08-28T02:19:02.651Z,65
2017-08-28T02:20:10.857Z,65
2017-08-28T02:21:18.950Z,65
2017-08-28T02:22:27.038Z,65
2017-08-28T02:23:35.125Z,65
2017-08-28T02:24:43.213Z,65
2017-08-28T02:25:51.310Z,66
2017-08-28T02:26:59.389Z,65
2017-08-28T02:28:07.479Z,66
2017-08-28T02:29:15.565Z,65
2017-08-28T02:30:23.654Z,66
2017-08-28T02:31:31.748Z,65
2017-08-28T02:32:39.833Z,66
2017-08-28T02:33:47.917Z,65
2017-08-28T02:34:56.005Z,66
2017-08-28T02:36:04.094Z,66
2017-08-28T02:37:12.179Z,65
2017-08-28T02:38:20.269Z,66
2017-08-28T02:39:28.356Z,66
2017-08-28T02:40:36.445Z,65
2017-08-28T02:41:44.536Z,66
2017-08-28T02:42:52.621Z,66
2017-08-28T02:44:00.709Z,65
2017-08-28T02:45:08.793Z,66
2017-08-28T02:46:16.882Z,66
2017-08-28T02:47:24.981Z,65
2017-08-28T02:48:33.057Z,65
2017-08-28T02:49:41.148Z,66
2017-08-28T02:50:49.235Z,66
2017-08-28T02:51:57.343Z,65
2017-08-28T02:53:05.416Z,65
2017-08-28T02:54:13.499Z,65
2017-08-28T02:55:21.582Z,65
2017-08-28T02:56:29.672Z,65
2017-08-28T02:57:37.758Z,65
2017-08-28T02:58:45.852Z,65
2017-08-28T02:59:53.954Z,65
2017-08-28T03:01:02.043Z,65
2017-08-28T03:02:10.128Z,65
2017-08-28T03:03:18.217Z,65
2017-08-28T03:04:26.304Z,65
2017-08-28T03:05:34.394Z,65
2017-08-28T03:06:42.478Z,65
2017-08-28T03:07:50.570Z,65
2017-08-28T03:08:58.672Z,65
2017-08-28T03:10:06.743Z,65
2017-08-28T03:11:14.834Z,65
2017-08-28T03:12:22.917Z,65
2017-08-28T03:13:31.097Z,65
2017-08-28T03:14:39.097Z,65
2017-08-28T03:15:47.181Z,65
2017-08-28T03:16:55.271Z,65
2017-08-28T03:18:03.361Z,65
2017-08-28T03:19:11.445Z,65
2017-08-28T03:20:19.534Z,65
2017-08-28T03:21:27.622Z,65
2017-08-28T03:22:35.709Z,65
2017-08-28T03:23:43.795Z,65
2017-08-28T03:24:51.884Z,65
2017-08-28T03:25:59.972Z,65
2017-08-28T03:27:08.060Z,65
2017-08-28T03:28:16.146Z,65
2017-08-28T03:29:24.233Z,65
2017-08-28T03:30:32.323Z,65
2017-08-28T03:31:40.417Z,65
2017-08-28T03:32:48.495Z,65
2017-08-28T03:33:56.584Z,65
2017-08-28T03:35:04.673Z,65
2017-08-28T03:36:12.767Z,65
2017-08-28T03:37:20.856Z,65
2017-08-28T03:38:28.942Z,65
2017-08-28T03:39:37.028Z,65
2017-08-28T03:40:45.116Z,65
2017-08-28T03:41:53.202Z,65
2017-08-28T03:43:01.291Z,65
2017-08-28T03:44:09.378Z,65
2017-08-28T03:45:17.466Z,65
2017-08-28T03:46:25.554Z,65
2017-08-28T03:47:33.646Z,65
2017-08-28T03:48:41.740Z,65
2017-08-28T03:49:49.827Z,65
2017-08-28T03:50:57.916Z,65
2017-08-28T03:52:06.063Z,65
2017-08-28T03:53:14.140Z,65
2017-08-28T03:54:22.228Z,65
2017-08-28T03:55:30.311Z,65
2017-08-28T03:56:38.401Z,64
2017-08-28T03:57:46.490Z,65
2017-08-28T03:58:54.576Z,65
2017-08-28T04:00:02.673Z,65
2017-08-28T04:01:10.761Z,65
2017-08-28T04:02:18.856Z,65
2017-08-28T04:03:26.946Z,65
2017-08-28T04:04:35.030Z,65
2017-08-28T04:05:43.234Z,65
2017-08-28T04:06:51.204Z,65
2017-08-28T04:07:59.292Z,65
2017-08-28T04:09:07.379Z,65
2017-08-28T04:10:15.501Z,65
2017-08-28T04:11:23.556Z,65
2017-08-28T04:12:31.643Z,65
2017-08-28T04:13:39.730Z,65
2017-08-28T04:14:47.822Z,65
2017-08-28T04:15:55.906Z,65
2017-08-28T04:17:03.994Z,65
2017-08-28T04:18:13.509Z,65
2017-08-28T04:19:20.176Z,65
2017-08-28T04:20:28.262Z,65
2017-08-28T04:21:36.344Z,65
2017-08-28T04:22:44.431Z,65
2017-08-28T04:23:52.528Z,65
2017-08-28T04:25:00.669Z,65
2017-08-28T04:26:08.705Z,65
2017-08-28T04:27:16.795Z,65
2017-08-28T04:28:24.881Z,65
2017-08-28T04:29:33.204Z,65
2017-08-28T04:30:41.853Z,65
2017-08-28T04:31:49.154Z,65
2017-08-28T04:32:57.245Z,65
2017-08-28T04:34:05.326Z,65
2017-08-28T04:35:13.415Z,65
2017-08-28T04:36:21.501Z,65
2017-08-28T04:37:29.589Z,65
2017-08-28T04:38:37.700Z,65
2017-08-28T04:39:45.773Z,65
2017-08-28T04:40:53.861Z,65
2017-08-28T04:42:01.993Z,65
2017-08-28T04:43:10.080Z,65
2017-08-28T04:44:18.187Z,65
2017-08-28T04:45:26.254Z,65
2017-08-28T04:46:34.345Z,65
2017-08-28T04:47:42.429Z,65
2017-08-28T04:48:50.517Z,65
2017-08-28T04:49:58.602Z,65
2017-08-28T04:51:06.698Z,65
2017-08-28T04:52:14.781Z,65
2017-08-28T04:53:23.006Z,65
2017-08-28T04:54:30.956Z,65
2017-08-28T04:55:39.043Z,65
2017-08-28T04:56:47.129Z,65
2017-08-28T04:57:55.217Z,65
2017-08-28T04:59:03.342Z,65
2017-08-28T05:00:11.396Z,65
2017-08-28T05:01:19.481Z,65
2017-08-28T05:02:27.730Z,65
2017-08-28T05:03:35.655Z,65
2017-08-28T05:04:43.742Z,65
2017-08-28T05:05:51.832Z,65
2017-08-28T05:06:59.929Z,65
2017-08-28T05:08:08.006Z,65
2017-08-28T05:09:16.092Z,65
2017-08-28T05:10:24.182Z,65
2017-08-28T05:11:32.270Z,65
2017-08-28T05:12:40.356Z,65
2017-08-28T05:13:48.445Z,65
2017-08-28T05:14:56.532Z,65
2017-08-28T05:16:04.620Z,65
2017-08-28T05:17:12.705Z,65
2017-08-28T05:18:20.794Z,65
2017-08-28T05:19:28.891Z,65
2017-08-28T05:20:36.985Z,65
2017-08-28T05:21:45.090Z,65
2017-08-28T05:22:53.153Z,65
2017-08-28T05:24:01.242Z,65
2017-08-28T05:25:09.328Z,65
2017-08-28T05:26:17.423Z,65
2017-08-28T05:27:25.502Z,64
2017-08-28T05:28:33.590Z,65
2017-08-28T05:29:41.681Z,65
2017-08-28T05:30:49.766Z,64
2017-08-28T05:31:57.869Z,64
2017-08-28T05:33:05.965Z,64
2017-08-28T05:34:14.051Z,64
2017-08-28T05:35:22.135Z,64
2017-08-28T05:36:30.220Z,65
2017-08-28T05:37:38.310Z,65
2017-08-28T05:38:46.505Z,65
2017-08-28T05:39:54.594Z,65
2017-08-28T05:41:02.681Z,65
2017-08-28T05:42:10.768Z,65
2017-08-28T05:43:18.855Z,65
2017-08-28T05:44:26.944Z,65
2017-08-28T05:45:35.032Z,65
2017-08-28T05:46:43.119Z,65
2017-08-28T05:47:51.207Z,65
2017-08-28T05:48:59.295Z,65
2017-08-28T05:50:07.409Z,65
2017-08-28T05:51:15.468Z,65
2017-08-28T05:52:23.575Z,65
2017-08-28T05:53:31.665Z,65
2017-08-28T05:54:39.756Z,65
2017-08-28T05:55:47.839Z,65
2017-08-28T05:56:55.925Z,65
2017-08-28T05:58:04.012Z,65
2017-08-28T05:59:12.100Z,65
2017-08-28T06:00:20.187Z,65
2017-08-28T06:01:28.272Z,65
2017-08-28T06:02:36.362Z,65
2017-08-28T06:03:44.460Z,65
2017-08-28T06:04:52.546Z,65
2017-08-28T06:06:00.632Z,65
2017-08-28T06:07:08.721Z,65
2017-08-28T06:08:16.977Z,65
2017-08-28T06:09:25.061Z,65
2017-08-28T06:10:33.153Z,65
2017-08-28T06:11:41.259Z,65
2017-08-28T06:12:49.345Z,65
2017-08-28T06:13:57.433Z,65
2017-08-28T06:15:05.521Z,65
2017-08-28T06:16:13.607Z,65
2017-08-28T06:17:21.696Z,65
2017-08-28T06:18:29.792Z,65
2017-08-28T06:19:37.870Z,66
2017-08-28T06:20:45.959Z,65
2017-08-28T06:21:54.046Z,66
2017-08-28T06:23:02.132Z,66
2017-08-28T06:24:10.220Z,66
2017-08-28T06:25:18.308Z,66
2017-08-28T06:26:26.406Z,66
2017-08-28T06:27:34.489Z,66
2017-08-28T06:28:42.577Z,66
2017-08-28T06:29:50.663Z,66
2017-08-28T06:30:58.749Z,66
2017-08-28T06:32:06.836Z,66
2017-08-28T06:33:14.928Z,66
2017-08-28T06:34:23.012Z,66
2017-08-28T06:35:31.099Z,66
2017-08-28T06:36:39.189Z,67
2017-08-28T06:37:47.276Z,67
2017-08-28T06:38:55.386Z,67
2017-08-28T06:40:03.462Z,66
2017-08-28T06:41:11.557Z,67
2017-08-28T06:42:19.637Z,67
2017-08-28T06:43:27.722Z,67
2017-08-28T06:44:35.812Z,67
2017-08-28T06:45:43.897Z,67
2017-08-28T06:46:51.990Z,67
2017-08-28T06:48:00.080Z,67
2017-08-28T06:49:08.165Z,68
2017-08-28T06:50:16.253Z,67
2017-08-28T06:51:24.349Z,67
2017-08-28T06:52:32.444Z,67
2017-08-28T06:53:40.532Z,67
2017-08-28T06:54:48.618Z,67
2017-08-28T06:55:56.711Z,67
2017-08-28T06:57:04.797Z,67
2017-08-28T06:58:12.889Z,67
2017-08-28T06:59:20.980Z,67
2017-08-28T07:00:29.064Z,67
2017-08-28T07:01:37.243Z,67
2017-08-28T07:02:45.258Z,67
2017-08-28T07:03:53.344Z,67
2017-08-28T07:05:01.433Z,68
2017-08-28T07:06:09.522Z,68
2017-08-28T07:07:17.650Z,67
2017-08-28T07:08:25.695Z,68
2017-08-28T07:09:33.782Z,68
2017-08-28T07:10:41.870Z,68
2017-08-28T07:11:49.958Z,68
2017-08-28T07:12:58.044Z,68
2017-08-28T07:14:06.143Z,68
2017-08-28T07:15:14.223Z,68
2017-08-28T07:16:22.308Z,68
2017-08-28T07:17:30.393Z,68
2017-08-28T07:18:38.488Z,68
2017-08-28T07:19:46.570Z,68
2017-08-28T07:20:54.655Z,68
2017-08-28T07:22:02.763Z,68
2017-08-28T07:23:10.850Z,68
2017-08-28T07:24:18.938Z,68
2017-08-28T07:25:27.026Z,68
2017-08-28T07:26:35.112Z,69
2017-08-28T07:27:43.201Z,69
2017-08-28T07:28:51.287Z,69
2017-08-28T07:29:59.376Z,69
2017-08-28T07:31:07.480Z,69
2017-08-28T07:32:15.566Z,69
2017-08-28T07:33:23.653Z,69
2017-08-28T07:34:31.742Z,69
2017-08-28T07:35:39.831Z,69
2017-08-28T07:36:47.920Z,69
2017-08-28T07:37:56.007Z,69
2017-08-28T07:39:04.101Z,69
2017-08-28T07:40:12.184Z,69
2017-08-28T07:41:20.275Z,70
2017-08-28T07:42:28.372Z,70
2017-08-28T07:43:36.450Z,70
2017-08-28T07:44:44.537Z,69
2017-08-28T07:45:52.628Z,70
2017-08-28T07:47:00.714Z,70
2017-08-28T07:48:08.877Z,70
2017-08-28T07:49:16.886Z,70
2017-08-28T07:50:24.975Z,70
2017-08-28T07:51:33.065Z,70
2017-08-28T07:52:41.150Z,70
2017-08-28T07:53:49.239Z,71
2017-08-28T07:54:57.327Z,71
2017-08-28T07:56:05.434Z,71
2017-08-28T07:57:13.520Z,71
2017-08-28T07:58:21.594Z,71
2017-08-28T07:59:29.676Z,72
2017-08-28T08:00:37.764Z,72
2017-08-28T08:01:45.857Z,72
2017-08-28T08:02:53.940Z,72
2017-08-28T08:04:02.028Z,72
2017-08-28T08:05:10.115Z,72
2017-08-28T08:06:18.203Z,72
2017-08-28T08:07:26.289Z,72
2017-08-28T08:08:34.383Z,72
2017-08-28T08:09:42.466Z,72
2017-08-28T08:10:50.554Z,72
2017-08-28T08:11:58.643Z,72
2017-08-28T08:13:06.729Z,72
2017-08-28T08:14:14.882Z,73
2017-08-28T08:15:22.916Z,73
2017-08-28T08:16:31.011Z,73
2017-08-28T08:17:39.099Z,73
2017-08-28T08:18:47.188Z,73
2017-08-28T08:19:55.276Z,73
2017-08-28T08:21:03.368Z,72
2017-08-28T08:22:11.448Z,73
2017-08-28T08:23:19.538Z,73
2017-08-28T08:24:27.624Z,73
2017-08-28T08:25:35.715Z,73
2017-08-28T08:26:43.801Z,72
2017-08-28T08:27:51.888Z,73
2017-08-28T08:28:59.995Z,73
2017-08-28T08:30:08.087Z,73
2017-08-28T08:31:16.173Z,73
2017-08-28T08:32:24.260Z,73
2017-08-28T08:33:32.350Z,73
2017-08-28T08:34:40.439Z,73
2017-08-28T08:35:48.528Z,73
2017-08-28T08:36:56.616Z,73
2017-08-28T08:38:04.732Z,72
2017-08-28T08:39:12.811Z,72
2017-08-28T08:40:20.878Z,72
2017-08-28T08:41:28.967Z,72
2017-08-28T08:42:37.056Z,72
2017-08-28T08:43:45.145Z,72
2017-08-28T08:44:53.233Z,72
2017-08-28T08:46:01.321Z,72
2017-08-28T08:47:09.409Z,73
2017-08-28T08:48:17.497Z,73
2017-08-28T08:49:25.582Z,72
2017-08-28T08:50:33.676Z,72
2017-08-28T08:51:41.760Z,73
2017-08-28T08:52:49.851Z,73
2017-08-28T08:53:57.938Z,73
2017-08-28T08:55:06.056Z,73
2017-08-28T08:56:14.116Z,73
2017-08-28T08:57:22.202Z,73
2017-08-28T08:58:30.292Z,73
2017-08-28T08:59:38.380Z,73
2017-08-28T09:00:46.487Z,73
2017-08-28T09:01:54.560Z,73
2017-08-28T09:03:02.645Z,73
2017-08-28T09:04:10.733Z,73
2017-08-28T09:05:18.821Z,73
2017-08-28T09:06:26.915Z,73
2017-08-28T09:07:34.998Z,73
2017-08-28T09:08:43.087Z,73
2017-08-28T09:09:51.181Z,73
2017-08-28T09:10:59.269Z,74
2017-08-28T09:12:07.356Z,73
2017-08-28T09:13:15.442Z,73
2017-08-28T09:14:23.531Z,73
2017-08-28T09:15:31.617Z,74
2017-08-28T09:16:39.708Z,73
2017-08-28T09:17:47.796Z,73
2017-08-28T09:18:55.883Z,73
2017-08-28T09:20:03.972Z,74
2017-08-28T09:21:12.061Z,74
2017-08-28T09:22:20.148Z,74
2017-08-28T09:23:28.248Z,74
2017-08-28T09:24:36.337Z,74
2017-08-28T09:25:44.433Z,74
2017-08-28T09:26:52.512Z,74
2017-08-28T09:28:00.599Z,74
2017-08-28T09:29:08.688Z,74
2017-08-28T09:30:16.779Z,74
2017-08-28T09:31:24.871Z,74
2017-08-28T09:32:32.962Z,73
2017-08-28T09:33:41.046Z,74
2017-08-28T09:34:49.137Z,74
2017-08-28T09:35:57.224Z,74
2017-08-28T09:37:05.309Z,74
2017-08-28T09:38:13.400Z,73
2017-08-28T09:39:21.487Z,73
2017-08-28T09:40:29.581Z,74
2017-08-28T09:41:37.670Z,74
2017-08-28T09:42:45.757Z,74
2017-08-28T09:43:53.844Z,74
2017-08-28T09:45:01.926Z,73
2017-08-28T09:46:10.025Z,74
2017-08-28T09:47:18.108Z,74
2017-08-28T09:48:26.195Z,74
2017-08-28T09:49:34.285Z,74
2017-08-28T09:50:42.374Z,73
2017-08-28T09:51:50.462Z,74
2017-08-28T09:52:58.553Z,74
2017-08-28T09:54:06.649Z,74
2017-08-28T09:55:14.852Z,73
2017-08-28T09:56:22.944Z,74
2017-08-28T09:57:31.029Z,74
2017-08-28T09:58:39.120Z,74
2017-08-28T09:59:47.209Z,73
2017-08-28T10:00:55.295Z,73
2017-08-28T10:02:03.385Z,73
2017-08-28T10:03:11.478Z,73
2017-08-28T10:04:19.564Z,73
2017-08-28T10:05:27.654Z,73
2017-08-28T10:06:35.741Z,73
2017-08-28T10:07:43.829Z,73
2017-08-28T10:08:51.920Z,73
2017-08-28T10:10:00.007Z,73
2017-08-28T10:11:08.096Z,73
2017-08-28T10:12:16.186Z,73
2017-08-28T10:13:24.275Z,73
2017-08-28T10:14:32.365Z,73
2017-08-28T10:15:40.452Z,73
2017-08-28T10:16:48.558Z,73
2017-08-28T10:17:56.630Z,73
2017-08-28T10:19:04.730Z,73
2017-08-28T10:20:12.812Z,73
2017-08-28T10:21:20.905Z,73
2017-08-28T10:22:28.997Z,73
2017-08-28T10:23:37.079Z,72
2017-08-28T10:24:45.178Z,72
2017-08-28T10:25:53.273Z,73
2017-08-28T10:27:01.355Z,73
2017-08-28T10:28:09.443Z,73
2017-08-28T10:29:17.536Z,72
2017-08-28T10:30:25.624Z,72
2017-08-28T10:31:33.713Z,72
2017-08-28T10:32:41.805Z,72
2017-08-28T10:33:49.889Z,73
2017-08-28T10:34:57.983Z,72
2017-08-28T10:36:06.083Z,72
2017-08-28T10:37:14.157Z,72
2017-08-28T10:38:22.246Z,72
2017-08-28T10:39:30.335Z,72
2017-08-28T10:40:38.422Z,72
2017-08-28T10:41:46.515Z,72
2017-08-28T10:42:54.601Z,72
2017-08-28T10:44:02.690Z,72
2017-08-28T10:45:10.780Z,72
2017-08-28T10:46:18.866Z,72
2017-08-28T10:47:26.956Z,72
2017-08-28T10:48:35.052Z,72
2017-08-28T10:49:43.135Z,72
2017-08-28T10:50:51.223Z,72
2017-08-28T10:51:59.311Z,72
2017-08-28T10:53:07.400Z,72
2017-08-28T10:54:15.489Z,72
2017-08-28T10:55:23.578Z,72
2017-08-28T10:56:31.669Z,72
2017-08-28T10:57:39.762Z,72
2017-08-28T10:58:47.847Z,72
2017-08-28T10:59:55.933Z,71
2017-08-28T11:01:04.032Z,71
2017-08-28T11:02:12.116Z,72
2017-08-28T11:03:20.222Z,72
2017-08-28T11:04:28.292Z,71
2017-08-28T11:05:36.379Z,71
2017-08-28T11:06:44.477Z,71
2017-08-28T11:07:52.570Z,72
2017-08-28T11:09:00.657Z,71
2017-08-28T11:10:08.746Z,71
2017-08-28T11:11:16.832Z,71
2017-08-28T11:12:24.923Z,71
2017-08-28T11:13:33.030Z,72
2017-08-28T11:14:41.100Z,72
2017-08-28T11:15:49.186Z,72
2017-08-28T11:16:57.279Z,72
2017-08-28T11:18:05.368Z,72
2017-08-28T11:19:13.457Z,72
2017-08-28T11:20:21.546Z,72
2017-08-28T11:21:29.634Z,71
2017-08-28T11:22:37.725Z,72
2017-08-28T11:23:45.845Z,71
2017-08-28T11:24:54.037Z,72
2017-08-28T11:26:02.125Z,71
2017-08-28T11:27:10.218Z,72
2017-08-28T11:28:18.307Z,72
2017-08-28T11:29:26.399Z,71
2017-08-28T11:30:34.487Z,71
2017-08-28T11:31:42.575Z,71
2017-08-28T11:32:50.663Z,72
2017-08-28T11:33:58.753Z,71
2017-08-28T11:35:06.845Z,71
2017-08-28T11:36:15.237Z,72
2017-08-28T11:37:23.326Z,72
2017-08-28T11:38:31.416Z,72
2017-08-28T11:39:39.506Z,71
2017-08-28T11:40:47.595Z,72
2017-08-28T11:41:55.684Z,72
2017-08-28T11:43:03.782Z,72
2017-08-28T11:44:11.872Z,72
2017-08-28T11:45:19.972Z,72
2017-08-28T11:46:28.059Z,72
2017-08-28T11:47:36.146Z,72
2017-08-28T11:48:44.239Z,72
2017-08-28T11:49:52.346Z,72
2017-08-28T11:51:00.429Z,72
2017-08-28T11:52:08.516Z,72
2017-08-28T11:53:16.604Z,71
2017-08-28T11:54:24.708Z,71
2017-08-28T11:55:32.796Z,72
2017-08-28T11:56:40.884Z,72
2017-08-28T11:57:48.973Z,71
2017-08-28T11:58:57.063Z,71
2017-08-28T12:00:05.152Z,71
2017-08-28T12:01:13.245Z,71
2017-08-28T12:02:21.333Z,71
2017-08-28T12:03:29.422Z,71
2017-08-28T12:04:37.513Z,71
2017-08-28T12:05:45.603Z,71
2017-08-28T12:06:53.692Z,71
2017-08-28T12:08:01.779Z,70
2017-08-28T12:09:09.870Z,71
2017-08-28T12:10:17.957Z,70
2017-08-28T12:11:26.047Z,70
2017-08-28T12:12:34.137Z,70
2017-08-28T12:13:42.329Z,70
2017-08-28T12:14:50.324Z,71
2017-08-28T12:15:58.412Z,71
2017-08-28T12:17:06.499Z,70
2017-08-28T12:18:14.590Z,70
2017-08-28T12:19:22.710Z,70
2017-08-28T12:20:30.797Z,70
2017-08-28T12:21:38.889Z,70
2017-08-28T12:22:46.976Z,70
2017-08-28T12:23:55.069Z,70
2017-08-28T12:25:03.161Z,71
2017-08-28T12:26:11.247Z,70
2017-08-28T12:27:19.337Z,70
2017-08-28T12:28:27.424Z,70
2017-08-28T12:29:35.524Z,70
2017-08-28T12:30:43.611Z,70
2017-08-28T12:31:51.701Z,70
2017-08-28T12:32:59.791Z,70
2017-08-28T12:34:07.883Z,70
2017-08-28T12:35:15.971Z,70
2017-08-28T12:36:24.078Z,70
2017-08-28T12:37:32.164Z,70
2017-08-28T12:38:40.241Z,70
2017-08-28T12:39:48.328Z,70
2017-08-28T12:40:56.416Z,70
2017-08-28T12:42:04.506Z,70
2017-08-28T12:43:12.595Z,71
2017-08-28T12:44:20.689Z,70
2017-08-28T12:45:28.775Z,70
2017-08-28T12:46:36.865Z,70
2017-08-28T12:47:44.954Z,70
2017-08-28T12:48:53.042Z,70
2017-08-28T12:50:01.128Z,70
2017-08-28T12:51:09.221Z,71
2017-08-28T12:52:17.311Z,71
2017-08-28T12:53:25.400Z,70
2017-08-28T12:54:33.489Z,70
2017-08-28T12:55:41.579Z,70
2017-08-28T12:56:49.668Z,70
2017-08-28T12:57:57.756Z,70
2017-08-28T12:59:05.847Z,70
2017-08-28T13:00:13.936Z,70
2017-08-28T13:01:22.027Z,70
2017-08-28T13:02:30.117Z,70
2017-08-28T13:03:38.225Z,71
2017-08-28T13:04:46.299Z,71
2017-08-28T13:05:54.384Z,71
2017-08-28T13:07:02.476Z,71
2017-08-28T13:08:10.564Z,71
2017-08-28T13:09:18.655Z,71
2017-08-28T13:10:26.743Z,71
2017-08-28T13:11:34.834Z,71
2017-08-28T13:12:42.923Z,71
2017-08-28T13:13:51.013Z,71
2017-08-28T13:15:05.255Z,71
2017-08-28T13:16:07.187Z,71
2017-08-28T13:17:15.285Z,71
2017-08-28T13:18:23.365Z,71
2017-08-28T13:19:31.455Z,71
2017-08-28T13:20:39.573Z,71
2017-08-28T13:21:47.644Z,71
2017-08-28T13:22:55.738Z,71
2017-08-28T13:24:03.824Z,71
2017-08-28T13:25:11.925Z,71
2017-08-28T13:26:20.000Z,71
2017-08-28T13:27:28.091Z,71
2017-08-28T13:28:36.180Z,70
2017-08-28T13:29:44.268Z,71
2017-08-28T13:30:56.691Z,70
2017-08-28T13:32:00.451Z,70
2017-08-28T13:33:08.538Z,70
2017-08-28T13:36:32.806Z,71
2017-08-28T13:37:40.894Z,71
2017-08-28T13:38:48.985Z,71
2017-08-28T13:41:05.162Z,71
2017-08-28T13:43:21.346Z,71
2017-08-28T13:44:29.432Z,71
2017-08-28T13:45:37.521Z,71
2017-08-28T13:46:45.610Z,71
2017-08-28T13:48:00.894Z,71
2017-08-28T13:49:01.788Z,71
2017-08-28T13:50:13.212Z,70
2017-08-28T13:51:17.964Z,70
2017-08-28T13:52:26.056Z,70
2017-08-28T13:53:34.160Z,71
2017-08-28T13:54:42.234Z,70
2017-08-28T13:55:50.325Z,71
2017-08-28T13:56:58.411Z,71
2017-08-28T13:58:06.514Z,71
2017-08-28T13:59:14.591Z,71
2017-08-28T14:00:22.682Z,71
2017-08-28T14:01:30.771Z,71
2017-08-28T14:02:38.860Z,71
2017-08-28T14:03:46.956Z,72
2017-08-28T14:04:55.038Z,71
2017-08-28T14:06:03.136Z,71
2017-08-28T14:07:11.219Z,71
2017-08-28T14:08:19.311Z,72
2017-08-28T14:09:27.396Z,71
2017-08-28T14:10:35.488Z,71
2017-08-28T14:11:43.574Z,72
2017-08-28T14:12:52.664Z,71
2017-08-28T14:13:59.754Z,71
2017-08-28T14:15:07.850Z,71
2017-08-28T14:16:15.931Z,71
2017-08-28T14:17:24.019Z,71
2017-08-28T14:18:32.112Z,70
2017-08-28T14:19:40.201Z,70
2017-08-28T14:20:48.290Z,69
2017-08-28T14:21:56.378Z,69
2017-08-28T14:23:04.469Z,68
2017-08-28T14:24:12.557Z,68
2017-08-28T14:25:20.646Z,68
2017-08-28T14:26:28.734Z,67
2017-08-28T14:28:49.537Z,67
2017-08-28T14:31:01.108Z,67
2017-08-28T14:33:17.286Z,67
2017-08-28T14:34:25.376Z,67
2017-08-28T14:35:33.465Z,67
2017-08-28T14:36:41.556Z,67
2017-08-28T14:37:49.646Z,67
2017-08-28T14:38:57.735Z,67
2017-08-28T14:40:05.842Z,67
2017-08-28T14:41:13.913Z,67
2017-08-28T14:42:23.376Z,67
2017-08-28T14:43:44.220Z,67
2017-08-28T14:44:38.183Z,66
2017-08-28T14:45:46.273Z,66
2017-08-28T14:46:54.362Z,66
2017-08-28T14:49:10.542Z,65
2017-08-28T14:50:18.632Z,65
2017-08-28T14:51:26.719Z,65
2017-08-28T14:52:34.809Z,64
2017-08-28T14:53:42.901Z,64
2017-08-28T14:54:50.986Z,64
2017-08-28T14:55:59.077Z,64
2017-08-28T14:57:07.166Z,64
2017-08-28T14:58:15.254Z,64
2017-08-28T14:59:23.346Z,64
2017-08-28T15:01:39.521Z,64
2017-08-28T15:02:47.622Z,64
2017-08-28T15:03:55.708Z,64
2017-08-28T15:05:03.799Z,64
2017-08-28T15:06:11.889Z,64
2017-08-28T15:07:19.988Z,64
2017-08-28T15:08:28.077Z,64
2017-08-28T15:09:36.168Z,64
2017-08-28T15:10:44.255Z,64
2017-08-28T15:11:52.343Z,64
2017-08-28T15:13:00.433Z,64
2017-08-28T15:14:08.522Z,64
2017-08-28T15:15:16.613Z,64
2017-08-28T15:16:24.699Z,64
2017-08-28T15:17:32.789Z,64
2017-08-28T15:18:40.879Z,64
2017-08-28T15:19:49.078Z,64
2017-08-28T15:20:57.165Z,64
2017-08-28T15:22:05.256Z,64
2017-08-28T15:23:13.354Z,64
2017-08-28T15:24:21.439Z,64
2017-08-28T15:25:29.531Z,65
2017-08-28T15:26:37.619Z,64
2017-08-28T15:27:45.709Z,64
2017-08-28T15:28:53.796Z,65
2017-08-28T15:30:01.885Z,64
2017-08-28T15:31:09.977Z,64
2017-08-28T15:32:18.064Z,65
2017-08-28T15:33:26.153Z,64
2017-08-28T15:34:34.242Z,64
2017-08-28T15:35:42.331Z,65
2017-08-28T15:36:50.418Z,65
2017-08-28T15:37:58.509Z,65
2017-08-28T15:39:06.596Z,65
2017-08-28T15:40:14.694Z,65
2017-08-28T15:41:22.775Z,65
2017-08-28T15:42:30.865Z,66
2017-08-28T15:43:38.953Z,66
2017-08-28T15:44:47.041Z,66
2017-08-28T15:45:55.131Z,66
2017-08-28T15:47:03.221Z,67
2017-08-28T15:48:11.309Z,67
2017-08-28T15:49:19.397Z,68
2017-08-28T15:50:27.487Z,68
2017-08-28T15:51:35.575Z,68
2017-08-28T15:52:43.664Z,69
2017-08-28T15:53:51.754Z,69
2017-08-28T15:54:59.846Z,69
2017-08-28T15:56:07.934Z,69
2017-08-28T15:57:16.020Z,69
2017-08-28T15:58:24.109Z,69
2017-08-28T15:59:32.201Z,69
2017-08-28T16:00:40.286Z,69
2017-08-28T16:01:48.378Z,69
2017-08-28T16:02:56.462Z,68
2017-08-28T16:04:04.556Z,68
2017-08-28T16:05:12.655Z,69
2017-08-28T16:06:20.744Z,69
2017-08-28T16:07:28.832Z,69
2017-08-28T16:08:36.924Z,69
2017-08-28T16:09:45.013Z,69
2017-08-28T16:10:53.110Z,69
2017-08-28T16:12:01.205Z,69
2017-08-28T16:13:09.292Z,69
2017-08-28T16:14:17.393Z,69
2017-08-28T16:15:25.470Z,69
2017-08-28T16:16:33.565Z,69
2017-08-28T16:17:41.651Z,70
2017-08-28T16:18:49.738Z,69
2017-08-28T16:19:57.833Z,69
2017-08-28T16:21:05.916Z,70